Time;durP1;ratioP1;P1;durP2;ratioP2;P2;SDS_P1;SDS_P2;PMS_P1;PMS_P2;Temp;Humidity;BMP_temperature;BMP_pressure;BME280_temperature;BME280_humidity;BME280_pressure;Samples;Min_cycle;Max_cycle;Signal;HPM_P1;HPM_P2
2024/01/22 12:08:17;;;;;;;1.83;1.20;;;;;;;6.89;100.00;98629.53;5205825;27;20574;-90
2024/01/22 12:10:52;;;;;;;1.70;1.23;;;;;;;7.72;100.00;98656.69;5153703;27;39533;-89
2024/01/22 12:17:58;;;;;;;1.10;1.00;;;;;;;9.66;100.00;98684.13;5112498;27;42215;-89
2024/01/22 12:23:34;;;;;;;1.23;0.90;;;;;;;10.39;100.00;98647.75;5153196;27;38640;-90
2024/01/22 12:26:02;;;;;;;1.43;0.80;;;;;;;10.76;100.00;98685.06;5162473;27;41846;-88
2024/01/22 12:28:35;;;;;;;0.70;0.67;;;;;;;10.54;99.61;98629.19;5156938;27;41571;-90
2024/01/22 12:31:04;;;;;;;1.10;0.80;;;;;;;10.92;98.52;98666.34;5165062;27;42069;-89
2024/01/22 12:33:41;;;;;;;0.83;0.70;;;;;;;11.04;97.78;98655.78;5153261;27;40306;-89
2024/01/22 12:36:11;;;;;;;1.43;0.90;;;;;;;10.62;96.83;98595.13;5176604;27;42692;-91
2024/01/22 12:39:07;;;;;;;0.93;0.83;;;;;;;10.93;94.77;98557.63;5174700;27;43089;-89
2024/01/22 12:41:42;;;;;;;0.90;0.70;;;;;;;11.82;92.63;98614.13;5173776;27;42671;-91
2024/01/22 12:44:14;;;;;;;0.73;0.53;;;;;;;12.54;90.10;98609.72;5174306;27;39169;-91
2024/01/22 12:49:32;;;;;;;0.70;0.70;;;;;;;12.99;84.67;98671.00;5173479;27;43030;-88
2024/01/22 12:52:10;;;;;;;1.50;0.73;;;;;;;12.77;83.24;98620.44;5173514;27;42667;-90
2024/01/22 12:54:49;;;;;;;1.90;0.73;;;;;;;12.93;82.09;98663.50;5173281;27;38752;-91
2024/01/22 12:57:23;;;;;;;0.90;0.70;;;;;;;12.78;82.74;98659.31;5173266;27;41272;-88
2024/01/22 13:00:12;;;;;;;0.60;0.60;;;;;;;12.40;83.37;98612.53;5173118;27;42104;-89
2024/01/22 13:02:53;;;;;;;0.50;0.50;;;;;;;12.06;84.22;98584.13;5168923;27;41635;-90
2024/01/22 13:05:25;;;;;;;1.93;0.70;;;;;;;11.88;85.03;98589.78;5134904;27;36954;-91
2024/01/22 13:07:57;;;;;;;1.57;0.80;;;;;;;11.89;87.23;98617.16;5137613;27;40840;-92
2024/01/22 13:10:28;;;;;;;1.47;0.90;;;;;;;11.45;88.16;98560.16;5114321;27;43657;-91
2024/01/22 13:12:59;;;;;;;0.50;0.50;;;;;;;11.75;88.54;98614.63;5124116;27;42538;-93
2024/01/22 13:15:31;;;;;;;1.87;0.70;;;;;;;11.78;89.06;98619.75;5130772;27;39471;-92
2024/01/22 13:18:03;;;;;;;0.60;0.60;;;;;;;11.55;88.63;98586.88;5119685;27;42371;-92
2024/01/22 13:20:40;;;;;;;0.80;0.60;;;;;;;11.55;88.79;98586.88;5120990;27;41659;-92
2024/01/22 13:25:51;;;;;;;1.53;0.83;;;;;;;11.50;90.31;98611.03;5099298;27;39251;-86
2024/01/22 13:28:38;;;;;;;0.60;0.60;;;;;;;11.29;90.34;98579.88;5099829;27;40655;-87
2024/01/22 13:31:07;;;;;;;1.23;0.73;;;;;;;11.41;90.97;98605.53;5100046;27;44392;-88
2024/01/22 13:33:59;;;;;;;2.73;0.77;;;;;;;11.13;91.91;98569.50;5113072;27;42640;-87
2024/01/22 13:36:30;;;;;;;2.00;0.70;;;;;;;11.28;92.61;98596.75;5120498;27;39463;-89
2024/01/22 13:39:04;;;;;;;0.80;0.50;;;;;;;11.15;93.29;98589.66;5105779;27;40671;-90
2024/01/22 13:41:36;;;;;;;1.20;0.80;;;;;;;11.04;93.31;98596.63;5099596;27;43121;-87
2024/01/22 13:46:56;;;;;;;1.17;0.80;;;;;;;11.06;94.16;98600.88;5119773;27;41948;-87
2024/01/22 13:49:27;;;;;;;1.23;0.70;;;;;;;10.82;93.86;98564.63;5104702;27;40547;-90
2024/01/22 13:52:24;;;;;;;1.57;0.80;;;;;;;10.53;94.44;98526.88;5099034;27;43549;-92
2024/01/22 13:54:58;;;;;;;0.90;0.90;;;;;;;10.74;94.81;98559.84;5093083;27;42500;-92
2024/01/22 13:57:34;;;;;;;0.83;0.80;;;;;;;10.96;94.81;98589.22;5099784;27;39093;-88
2024/01/22 14:00:04;;;;;;;2.67;0.90;;;;;;;10.59;94.54;98534.41;5117166;27;42034;-89
2024/01/22 14:02:43;;;;;;;0.80;0.80;;;;;;;10.76;94.49;98555.28;5119939;27;43062;-90
2024/01/22 14:05:10;;;;;;;1.10;1.00;;;;;;;10.99;94.62;98602.28;5101641;27;41690;-87
2024/01/22 14:07:40;;;;;;;1.30;0.80;;;;;;;10.76;95.00;98565.88;5099051;27;39247;-89
2024/01/22 14:10:17;;;;;;;1.17;1.00;;;;;;;10.90;95.47;98589.63;5097770;27;40603;-86
2024/01/22 14:12:52;;;;;;;1.10;1.00;;;;;;;10.61;95.05;98527.22;5119854;27;41980;-89
2024/01/22 14:15:19;;;;;;;1.27;0.80;;;;;;;10.66;94.88;98538.31;5119377;27;42200;-90
2024/01/22 14:18:03;;;;;;;2.43;0.90;;;;;;;10.61;96.48;98545.75;5119719;27;39062;-90
2024/01/22 14:20:33;;;;;;;1.43;0.83;;;;;;;10.67;97.89;98556.75;5102461;27;41072;-91
2024/01/22 14:25:55;;;;;;;1.80;0.90;;;;;;;10.60;99.40;98565.22;5114559;27;41825;-90
2024/01/22 14:32:10;;;;;;;1.60;1.10;;;;;;;10.17;99.94;98509.81;5150830;27;42331;-93
2024/01/22 14:35:00;;;;;;;0.83;0.80;;;;;;;10.08;99.79;98507.78;5142062;27;42922;-90
2024/01/22 14:37:37;;;;;;;1.03;0.90;;;;;;;10.57;99.72;98592.75;5116609;27;41266;-90
